createdAt,value
2022-12-05T00:04:10.721Z,81121.19
2022-12-05T00:09:15.038Z,81443.94
2022-12-05T00:14:20.024Z,82017.09
2022-12-05T00:19:26.319Z,82478.59
2022-12-05T00:24:29.907Z,82747.66
2022-12-05T00:29:34.858Z,83010.50
2022-12-05T00:34:38.886Z,83223.69
2022-12-05T00:39:42.436Z,84155.28
2022-12-05T00:44:47.377Z,83904.78
2022-12-05T00:49:51.392Z,84037.28
2022-12-05T00:54:54.872Z,84349.91
2022-12-05T00:59:59.992Z,84600.44
2022-12-05T01:05:04.086Z,84801.31
2022-12-05T01:10:08.882Z,85087.06
2022-12-05T01:15:13.975Z,84989.75
2022-12-05T01:20:17.631Z,85261.03
2022-12-05T01:25:21.307Z,85648.31
2022-12-05T01:30:26.533Z,85406.00
2022-12-05T01:35:32.960Z,85693.91
2022-12-05T01:40:37.161Z,86035.66
2022-12-05T01:45:44.491Z,86191.00
2022-12-05T01:50:49.817Z,86186.88
2022-12-05T01:55:54.929Z,86365.03
2022-12-05T02:00:59.979Z,86673.69
2022-12-05T02:06:05.025Z,86947.16
2022-12-05T02:11:09.982Z,87311.84
2022-12-05T02:16:22.063Z,87535.63
2022-12-05T02:22:08.688Z,87896.19
2022-12-05T02:27:28.413Z,88130.38
2022-12-05T02:32:41.972Z,88028.81
2022-12-05T02:37:53.136Z,87320.13
2022-12-05T02:43:01.162Z,87019.69
2022-12-05T02:48:07.378Z,86897.44
2022-12-05T02:53:14.320Z,87202.00
2022-12-05T02:58:23.972Z,87237.25
2022-12-05T03:03:30.530Z,87191.66
2022-12-05T03:08:41.084Z,86949.25
2022-12-05T03:13:47.243Z,87699.31
2022-12-05T03:18:57.867Z,87821.59
2022-12-05T03:24:04.375Z,87829.88
2022-12-05T03:29:20.934Z,87987.38
2022-12-05T03:34:33.674Z,88393.59
2022-12-05T03:39:43.312Z,88412.22
2022-12-05T03:44:53.770Z,88957.38
2022-12-05T03:50:04.278Z,88758.38
2022-12-05T03:55:13.608Z,89019.56
2022-12-05T04:00:20.375Z,89247.59
2022-12-05T04:05:31.812Z,89496.34
2022-12-05T04:10:49.476Z,89359.53
2022-12-05T04:16:16.029Z,89177.09
2022-12-05T04:21:39.274Z,89492.22
2022-12-05T04:26:49.579Z,89678.78
2022-12-05T04:31:59.759Z,89119.06
2022-12-05T04:37:11.761Z,88963.59
2022-12-05T04:42:19.243Z,89419.66
2022-12-05T04:47:26.457Z,89469.41
2022-12-05T04:52:32.753Z,89475.63
2022-12-05T04:57:42.103Z,89635.25
2022-12-05T06:29:35.465Z,91711.09
2022-12-05T06:34:39.080Z,88435.03
2022-12-05T06:39:42.778Z,92250.47
2022-12-05T06:44:47.798Z,90964.41
2022-12-05T06:49:51.491Z,91918.53
2022-12-05T06:54:55.226Z,91590.78
2022-12-05T07:00:22.473Z,91482.94
2022-12-05T07:05:26.006Z,91281.75
2022-12-05T07:10:29.554Z,90004.31
2022-12-05T07:15:34.570Z,89052.72
2022-12-05T07:21:04.003Z,89500.50
2022-12-05T07:26:06.092Z,89913.09
2022-12-05T07:31:13.262Z,90255.22
2022-12-05T07:36:18.726Z,90400.34
2022-12-05T07:41:24.978Z,90334.00
2022-12-05T07:46:31.586Z,90806.81
2022-12-05T07:51:35.523Z,90939.53
2022-12-05T07:56:42.060Z,91041.16
2022-12-05T08:01:51.533Z,91068.13
2022-12-05T08:06:55.436Z,91449.75
2022-12-05T08:11:59.062Z,91360.56
2022-12-05T08:17:04.833Z,91621.91
2022-12-05T08:22:08.705Z,91731.84
2022-12-05T08:27:12.476Z,91798.22
2022-12-05T08:32:17.454Z,91742.22
2022-12-05T08:37:21.122Z,91993.22
2022-12-05T08:42:24.668Z,92424.72
2022-12-05T08:47:32.222Z,91611.53
2022-12-05T08:52:35.987Z,91972.47
2022-12-05T08:57:39.552Z,94105.56
2022-12-05T09:02:44.642Z,92047.16
2022-12-05T09:07:49.399Z,91943.44
2022-12-05T09:12:53.134Z,91935.13
2022-12-05T09:17:59.193Z,91852.16
2022-12-05T09:23:02.671Z,92208.97
2022-12-05T09:28:06.204Z,94184.44
2022-12-05T09:33:11.175Z,94340.09
2022-12-05T09:38:14.622Z,89865.41
2022-12-05T09:43:27.622Z,90495.75
2022-12-05T09:48:33.438Z,90881.47
2022-12-05T09:53:39.389Z,91005.91
2022-12-05T09:58:44.880Z,90653.34
2022-12-05T10:04:13.425Z,90914.66
2022-12-05T10:09:35.662Z,91267.22
2022-12-05T10:14:49.269Z,91088.84
2022-12-05T10:19:57.488Z,91443.53
2022-12-05T10:25:04.657Z,91321.16
2022-12-05T10:30:15.632Z,91225.75
2022-12-05T10:35:23.358Z,91785.78
2022-12-05T10:40:28.550Z,91980.78
2022-12-05T10:45:32.490Z,91756.72
2022-12-05T10:50:39.837Z,92072.03
2022-12-05T10:56:06.496Z,91901.94
2022-12-05T11:01:17.194Z,92142.59
2022-12-05T11:06:26.875Z,92208.97
2022-12-05T11:11:33.512Z,92401.91
2022-12-05T11:16:40.687Z,92507.72
2022-12-05T11:21:45.837Z,92399.81
2022-12-05T11:26:51.855Z,92449.63
2022-12-05T11:31:55.588Z,92439.25
2022-12-05T11:37:06.345Z,92347.97
2022-12-05T11:42:25.121Z,92350.03
2022-12-05T11:47:47.093Z,92491.13
2022-12-05T11:53:05.524Z,94466.72
2022-12-05T11:58:29.982Z,92408.13
2022-12-05T12:04:13.181Z,92184.06
2022-12-05T12:09:29.589Z,92632.19
2022-12-05T12:14:42.482Z,92619.75
2022-12-05T12:20:14.249Z,92623.91
2022-12-05T12:25:30.155Z,92711.03
2022-12-05T12:30:49.752Z,93067.94
2022-12-05T12:36:02.164Z,93049.25
2022-12-05T12:41:17.672Z,93026.44
2022-12-05T12:46:31.461Z,93003.59
2022-12-05T12:51:35.374Z,93426.91
2022-12-05T12:56:54.217Z,93731.97
2022-12-05T13:02:05.097Z,93416.53
2022-12-05T13:07:14.183Z,93541.06
2022-12-05T13:12:24.602Z,93590.84
2022-12-05T13:17:30.392Z,93592.94
2022-12-05T13:22:33.941Z,93561.81
2022-12-05T13:27:38.906Z,93646.88
2022-12-05T13:32:43.087Z,93690.47
2022-12-05T13:38:06.610Z,93653.13
2022-12-05T13:43:13.070Z,93588.78
2022-12-05T13:48:23.962Z,93426.91
2022-12-05T13:53:33.472Z,93756.88
2022-12-05T13:58:59.839Z,93673.88
2022-12-05T14:04:04.606Z,93615.75
2022-12-05T14:09:29.837Z,93993.47
2022-12-05T14:15:01.885Z,93848.19
2022-12-05T14:20:24.580Z,93734.06
2022-12-05T14:25:54.660Z,93883.47
2022-12-05T14:31:18.904Z,93960.28
2022-12-05T14:36:30.482Z,94157.44
2022-12-05T14:41:36.792Z,94068.19
2022-12-05T14:46:46.284Z,94020.47
2022-12-05T14:51:57.390Z,94286.13
2022-12-05T14:57:04.883Z,94281.97
2022-12-05T15:02:21.316Z,94508.22
2022-12-05T15:07:33.204Z,94614.09
2022-12-05T15:12:43.047Z,94605.78
2022-12-05T15:17:51.740Z,94616.16
2022-12-05T15:22:55.621Z,94502.00
2022-12-05T15:28:02.120Z,94732.41
2022-12-05T15:33:12.954Z,94967.00
2022-12-05T15:38:27.034Z,94944.16
2022-12-05T15:43:32.963Z,95018.91
2022-12-05T15:48:38.005Z,95072.88
2022-12-05T15:53:45.514Z,95201.59
2022-12-05T15:58:54.466Z,95033.44
2022-12-05T16:04:03.299Z,95184.97
2022-12-05T16:09:11.683Z,94933.78
2022-12-05T16:14:36.970Z,95367.69
2022-12-05T16:19:41.236Z,95288.78
2022-12-05T16:24:48.366Z,95216.13
2022-12-05T16:30:11.535Z,95259.72
2022-12-05T16:35:32.646Z,95292.94
2022-12-05T16:40:36.315Z,95178.75
2022-12-05T16:45:41.786Z,95442.41
2022-12-05T16:50:47.308Z,95120.63
2022-12-05T16:55:51.384Z,95284.63
2022-12-05T17:01:01.999Z,94919.25
2022-12-05T17:06:07.347Z,95778.78
2022-12-05T17:11:15.937Z,95845.22
2022-12-05T17:16:20.939Z,95928.28
2022-12-05T17:21:32.233Z,96096.47
2022-12-05T17:26:35.711Z,95753.88
2022-12-05T17:31:39.606Z,95932.44
2022-12-05T17:36:44.628Z,96129.72
2022-12-05T17:41:48.751Z,96038.34
2022-12-05T17:46:52.515Z,96081.94
2022-12-05T17:52:20.919Z,95774.63
2022-12-05T17:57:22.023Z,95625.13
2022-12-05T18:02:25.526Z,95641.75
2022-12-05T18:07:30.530Z,95695.72
2022-12-05T18:12:34.077Z,95807.84
2022-12-05T18:17:37.795Z,95623.06
2022-12-05T18:22:43.232Z,95612.69
2022-12-05T18:27:46.803Z,95390.50
2022-12-05T18:32:50.736Z,95326.16
2022-12-05T18:37:55.669Z,95454.88
2022-12-05T18:42:59.238Z,95369.75
2022-12-05T18:48:37.660Z,95201.59
2022-12-05T18:53:28.279Z,95355.22
2022-12-05T18:58:31.842Z,95245.19
2022-12-05T19:03:36.152Z,95346.91
2022-12-05T19:08:41.084Z,95068.72
2022-12-05T19:13:44.791Z,95147.59
2022-12-05T19:18:48.593Z,95097.78
2022-12-05T19:23:53.583Z,95097.78
2022-12-05T19:28:58.216Z,94931.69
2022-12-05T19:34:03.317Z,94991.91
2022-12-05T19:39:14.204Z,94709.59
2022-12-05T19:44:17.785Z,94821.69
2022-12-05T19:49:23.037Z,94184.44
2022-12-05T19:54:28.299Z,94182.34
2022-12-05T19:59:32.294Z,94084.81
2022-12-05T20:04:35.997Z,94196.88
2022-12-05T20:09:41.040Z,94223.88
2022-12-05T20:14:44.552Z,94421.06
2022-12-05T20:19:48.076Z,94298.59
2022-12-05T20:24:53.000Z,94510.31
2022-12-05T20:29:56.854Z,94327.66
2022-12-05T20:35:00.506Z,94333.88
2022-12-05T20:40:06.355Z,94292.34
2022-12-05T20:45:10.494Z,94281.97
2022-12-05T20:50:14.799Z,94462.56
2022-12-05T20:55:19.849Z,94192.72
2022-12-05T21:00:24.429Z,94491.63
2022-12-05T21:05:28.129Z,94171.97
2022-12-05T21:10:32.985Z,94367.09
2022-12-05T21:15:37.071Z,94161.59
2022-12-05T21:20:42.378Z,94296.50
2022-12-05T21:25:47.379Z,94138.75
2022-12-05T21:30:50.954Z,94205.19
2022-12-05T21:35:55.803Z,94296.50
2022-12-05T21:41:00.934Z,93945.75
2022-12-05T21:46:06.207Z,94188.56
2022-12-05T21:51:10.414Z,94080.66
2022-12-05T21:56:17.515Z,93893.84
2022-12-05T22:01:23.212Z,93900.09
2022-12-05T22:06:27.110Z,93833.66
2022-12-05T22:11:32.243Z,93893.84
2022-12-05T22:16:36.016Z,93518.22
2022-12-05T22:21:39.722Z,93416.53
2022-12-05T22:26:44.568Z,93383.34
2022-12-05T22:31:48.109Z,93603.31
2022-12-05T22:36:52.340Z,93632.38
2022-12-05T22:41:57.469Z,93362.59
2022-12-05T22:47:01.091Z,93565.97
2022-12-05T22:52:04.936Z,93630.28
2022-12-05T22:57:09.816Z,93819.16
2022-12-05T23:02:16.536Z,93812.91
2022-12-05T23:07:20.692Z,93808.75
2022-12-05T23:12:25.986Z,93673.88
2022-12-05T23:17:29.708Z,93966.50
2022-12-05T23:22:34.903Z,93846.13
2022-12-05T23:27:40.061Z,94001.78
2022-12-05T23:32:43.810Z,93966.50
2022-12-05T23:37:48.702Z,93775.56
2022-12-05T23:42:53.902Z,94159.53
2022-12-05T23:48:00.552Z,94072.34
2022-12-05T23:53:08.070Z,94018.38
2022-12-05T23:58:13.226Z,94279.91
